createdAt,value
2023-07-03T00:00:49.439Z,89.38
2023-07-03T00:03:39.862Z,89.98
2023-07-03T00:06:08.984Z,90.14
2023-07-03T00:08:37.905Z,90.62
2023-07-03T00:11:06.827Z,91.09
2023-07-03T00:13:35.178Z,91.30
2023-07-03T00:16:05.016Z,90.23
2023-07-03T00:18:33.383Z,90.26
2023-07-03T00:21:01.587Z,90.66
2023-07-03T00:23:29.968Z,92.84
2023-07-03T00:25:58.327Z,91.93
2023-07-03T00:28:27.022Z,93.21
2023-07-03T00:30:55.199Z,93.64
2023-07-03T00:33:23.550Z,94.57
2023-07-03T00:35:51.988Z,94.16
2023-07-03T00:38:21.132Z,92.77
2023-07-03T00:40:49.764Z,92.73
2023-07-03T00:43:18.921Z,93.16
2023-07-03T00:45:48.890Z,93.82
2023-07-03T00:48:18.338Z,93.84
2023-07-03T00:50:46.695Z,92.82
2023-07-03T00:53:16.353Z,92.30
2023-07-03T00:55:44.802Z,92.24
2023-07-03T00:58:13.186Z,93.15
2023-07-03T01:00:50.540Z,92.76
2023-07-03T01:03:28.071Z,91.45
2023-07-03T01:05:56.949Z,91.05
2023-07-03T01:08:26.251Z,91.15
2023-07-03T01:10:57.276Z,90.80
2023-07-03T01:13:29.247Z,90.93
2023-07-03T01:15:59.101Z,90.77
2023-07-03T01:18:28.432Z,90.34
2023-07-03T01:21:16.050Z,90.08
2023-07-03T01:24:05.704Z,89.96
2023-07-03T01:26:36.151Z,90.19
2023-07-03T01:29:06.367Z,90.19
2023-07-03T01:31:36.696Z,91.26
2023-07-03T01:34:06.469Z,91.18
2023-07-03T01:36:37.041Z,90.60
2023-07-03T01:39:05.722Z,90.75
2023-07-03T01:41:34.466Z,90.46
2023-07-03T01:44:02.936Z,89.63
2023-07-03T01:46:31.233Z,90.10
2023-07-03T01:48:59.564Z,90.15
2023-07-03T01:51:41.268Z,90.37
2023-07-03T01:54:24.071Z,90.73
2023-07-03T01:56:52.975Z,90.54
2023-07-03T01:59:29.326Z,90.34
2023-07-03T02:02:07.036Z,90.01
2023-07-03T02:04:45.687Z,90.27
2023-07-03T02:07:15.872Z,90.92
2023-07-03T02:09:44.679Z,91.36
2023-07-03T02:12:13.076Z,90.94
2023-07-03T02:14:41.861Z,90.87
2023-07-03T02:17:10.871Z,91.31
2023-07-03T02:19:39.357Z,90.85
2023-07-03T02:22:08.198Z,90.23
2023-07-03T02:24:37.387Z,90.46
2023-07-03T02:27:06.038Z,90.35
2023-07-03T02:29:34.625Z,90.27
2023-07-03T02:32:02.981Z,91.01
2023-07-03T02:34:33.438Z,90.22
2023-07-03T02:37:01.919Z,90.77
2023-07-03T02:39:30.789Z,91.22
2023-07-03T02:41:59.174Z,91.10
2023-07-03T02:44:27.867Z,91.18
2023-07-03T02:46:56.591Z,91.25
2023-07-03T02:49:29.666Z,90.79
2023-07-03T02:51:59.204Z,90.63
2023-07-03T02:54:29.907Z,90.67
2023-07-03T02:56:58.172Z,91.74
2023-07-03T02:59:26.590Z,91.46
2023-07-03T03:01:54.787Z,91.28
2023-07-03T03:04:23.172Z,91.18
2023-07-03T03:06:51.517Z,90.81
2023-07-03T03:09:19.851Z,90.05
2023-07-03T03:11:48.447Z,90.14
2023-07-03T03:14:16.758Z,90.11
2023-07-03T03:16:45.212Z,90.27
2023-07-03T03:19:13.516Z,90.08
2023-07-03T03:21:41.866Z,90.33
2023-07-03T03:24:10.329Z,90.62
2023-07-03T03:26:38.595Z,90.39
2023-07-03T03:29:06.810Z,91.28
2023-07-03T03:31:35.089Z,92.68
2023-07-03T03:34:05.348Z,92.17
2023-07-03T03:36:34.754Z,92.38
2023-07-03T03:39:04.492Z,92.35
2023-07-03T03:41:33.349Z,92.39
2023-07-03T03:44:02.020Z,91.84
2023-07-03T03:46:30.437Z,91.58
2023-07-03T03:48:59.422Z,91.33
2023-07-03T03:51:28.216Z,90.72
2023-07-03T03:53:56.609Z,90.17
2023-07-03T03:56:24.912Z,91.72
2023-07-03T03:58:53.131Z,91.47
2023-07-03T04:01:21.427Z,90.81
2023-07-03T04:03:49.732Z,90.18
2023-07-03T04:06:18.104Z,89.36
2023-07-03T04:08:46.434Z,89.00
2023-07-03T04:11:15.468Z,89.02
2023-07-03T04:13:43.737Z,88.70
2023-07-03T04:16:13.476Z,88.89
2023-07-03T04:18:42.053Z,89.90
2023-07-03T04:21:10.361Z,91.02
2023-07-03T04:23:38.757Z,91.09
2023-07-03T04:26:07.098Z,90.53
2023-07-03T04:28:35.450Z,89.80
2023-07-03T04:31:03.916Z,89.99
2023-07-03T04:33:32.216Z,90.35
2023-07-03T04:36:00.590Z,89.56
2023-07-03T04:38:28.910Z,89.37
2023-07-03T04:40:57.742Z,88.78
2023-07-03T04:43:26.023Z,88.23
2023-07-03T04:45:55.161Z,88.15
2023-07-03T04:48:23.702Z,88.67
2023-07-03T04:50:52.014Z,88.43
2023-07-03T04:53:24.501Z,88.16
2023-07-03T04:55:53.172Z,88.78
2023-07-03T04:58:22.901Z,88.47
2023-07-03T05:00:51.441Z,87.93
2023-07-03T05:03:19.900Z,87.80
2023-07-03T05:05:48.587Z,86.68
2023-07-03T05:08:16.925Z,86.20
2023-07-03T05:10:45.217Z,85.63
2023-07-03T05:13:13.418Z,84.78
2023-07-03T05:15:41.649Z,84.08
2023-07-03T05:18:09.950Z,84.00
2023-07-03T05:20:38.352Z,81.69
2023-07-03T05:23:06.669Z,82.17
2023-07-03T05:25:35.189Z,80.83
2023-07-03T05:28:03.362Z,81.36
2023-07-03T05:30:31.683Z,80.14
2023-07-03T05:33:00.253Z,80.15
2023-07-03T05:35:28.655Z,78.50
2023-07-03T05:37:57.597Z,79.41
2023-07-03T05:40:26.025Z,79.22
2023-07-03T05:42:54.449Z,77.54
2023-07-03T05:45:22.644Z,76.49
2023-07-03T05:47:51.536Z,75.26
2023-07-03T05:50:19.935Z,74.32
2023-07-03T05:52:48.071Z,75.70
2023-07-03T05:55:16.429Z,76.27
2023-07-03T05:57:44.985Z,76.04
2023-07-03T06:00:16.920Z,74.98
2023-07-03T06:02:48.390Z,72.93
2023-07-03T06:05:18.034Z,74.55
2023-07-03T06:07:46.340Z,73.06
2023-07-03T06:10:15.172Z,71.22
2023-07-03T06:12:44.409Z,71.97
2023-07-03T06:15:12.683Z,72.31
2023-07-03T06:17:42.164Z,71.51
2023-07-03T06:20:12.414Z,70.84
2023-07-03T06:22:43.488Z,70.84
2023-07-03T06:25:12.069Z,70.25
2023-07-03T06:27:40.723Z,69.83
2023-07-03T06:30:09.630Z,70.58
2023-07-03T06:32:38.771Z,70.34
2023-07-03T06:35:07.703Z,69.35
2023-07-03T06:37:37.251Z,66.77
2023-07-03T06:40:10.722Z,64.69
2023-07-03T06:42:40.182Z,64.80
2023-07-03T06:45:14.220Z,58.67
2023-07-03T06:47:42.544Z,61.13
2023-07-03T06:50:11.271Z,56.00
2023-07-03T06:52:39.584Z,55.76
2023-07-03T06:55:08.314Z,55.70
2023-07-03T06:57:36.648Z,55.34
2023-07-03T07:00:07.271Z,52.48
2023-07-03T07:02:35.677Z,52.28
2023-07-03T07:05:04.607Z,52.47
2023-07-03T07:07:32.976Z,47.10
2023-07-03T07:10:02.258Z,48.05
2023-07-03T07:12:30.549Z,49.34
2023-07-03T07:14:58.840Z,50.56
2023-07-03T07:17:35.578Z,46.19
2023-07-03T07:20:14.742Z,47.04
2023-07-03T07:22:43.086Z,46.26
2023-07-03T07:25:11.380Z,45.06
2023-07-03T07:27:39.796Z,45.48
2023-07-03T07:30:08.576Z,40.00
2023-07-03T07:32:37.401Z,41.57
2023-07-03T07:35:08.840Z,42.26
2023-07-03T07:37:36.976Z,42.89
2023-07-03T07:40:06.045Z,45.41
2023-07-03T07:42:34.304Z,46.67
2023-07-03T07:45:02.729Z,47.57
2023-07-03T07:47:32.076Z,48.68
2023-07-03T07:50:00.374Z,48.57
2023-07-03T07:52:28.682Z,48.36
2023-07-03T07:55:00.303Z,47.75
2023-07-03T07:57:30.658Z,49.17
2023-07-03T07:59:59.076Z,47.05
2023-07-03T08:02:27.884Z,46.39
2023-07-03T08:04:57.816Z,47.20
2023-07-03T08:07:26.238Z,48.51
2023-07-03T08:09:54.510Z,48.28
2023-07-03T08:12:22.936Z,48.13
2023-07-03T08:14:51.223Z,47.26
2023-07-03T08:17:20.446Z,48.27
2023-07-03T08:19:49.517Z,50.00
2023-07-03T08:22:20.655Z,51.07
2023-07-03T08:24:49.680Z,52.53
2023-07-03T08:27:17.889Z,52.68
2023-07-03T08:29:48.168Z,53.76
2023-07-03T08:32:16.574Z,54.48
2023-07-03T08:37:08.012Z,54.95
2023-07-03T08:37:34.346Z,55.08
2023-07-03T08:40:02.667Z,54.92
2023-07-03T08:42:41.263Z,55.55
2023-07-03T08:45:13.684Z,52.32
2023-07-03T08:47:43.103Z,51.70
2023-07-03T08:50:28.005Z,49.09
2023-07-03T08:53:04.389Z,46.94
2023-07-03T08:55:47.041Z,46.08
2023-07-03T08:58:15.371Z,45.11
2023-07-03T09:00:54.735Z,45.70
2023-07-03T09:03:53.743Z,42.50
2023-07-03T09:06:37.367Z,43.71
2023-07-03T09:09:08.444Z,44.80
2023-07-03T09:11:40.849Z,44.53
2023-07-03T09:14:20.045Z,45.57
2023-07-03T09:16:48.888Z,46.10
2023-07-03T09:19:22.928Z,45.92
2023-07-03T09:21:55.964Z,46.40
2023-07-03T09:24:39.251Z,47.40
2023-07-03T09:27:19.607Z,46.81
2023-07-03T09:29:48.305Z,47.88
2023-07-03T09:32:28.581Z,48.41
2023-07-03T09:35:08.737Z,49.45
2023-07-03T09:37:46.643Z,50.70
2023-07-03T09:40:23.076Z,52.16
2023-07-03T09:42:51.699Z,51.94
2023-07-03T09:45:22.891Z,52.58
2023-07-03T09:48:04.081Z,53.53
2023-07-03T09:50:36.267Z,54.92
2023-07-03T09:53:09.715Z,55.38
2023-07-03T09:55:38.697Z,54.72
2023-07-03T09:58:17.878Z,54.58
2023-07-03T10:00:53.122Z,54.96
2023-07-03T10:03:33.731Z,55.22
2023-07-03T10:12:11.819Z,55.13
2023-07-03T10:15:06.727Z,54.88
2023-07-03T10:17:56.712Z,55.33
2023-07-03T10:20:29.817Z,54.96
2023-07-03T10:23:00.334Z,56.22
2023-07-03T10:25:35.441Z,56.37
2023-07-03T10:28:13.428Z,56.58
2023-07-03T10:30:42.205Z,55.39
2023-07-03T10:33:16.254Z,55.56
2023-07-03T10:35:44.983Z,55.74
2023-07-03T10:38:22.463Z,56.91
2023-07-03T10:41:16.487Z,56.16
2023-07-03T10:43:54.671Z,56.23
2023-07-03T10:46:30.544Z,56.11
2023-07-03T10:49:06.058Z,55.28
2023-07-03T10:51:56.735Z,56.05
2023-07-03T10:54:31.628Z,55.77
2023-07-03T10:57:04.993Z,55.28
2023-07-03T10:59:36.858Z,55.38
2023-07-03T11:02:19.214Z,55.49
2023-07-03T11:04:56.346Z,55.81
2023-07-03T11:07:34.074Z,56.52
2023-07-03T11:10:29.992Z,57.64
2023-07-03T11:13:07.650Z,59.93
2023-07-03T11:15:54.218Z,56.07
2023-07-03T11:25:03.289Z,58.08
2023-07-03T11:28:07.942Z,57.83
2023-07-03T11:30:40.631Z,58.20
2023-07-03T11:33:10.126Z,58.32
2023-07-03T11:35:51.967Z,58.03
2023-07-03T11:40:55.318Z,58.29
2023-07-03T11:43:42.987Z,57.98
2023-07-03T11:46:18.516Z,58.91
2023-07-03T11:48:50.403Z,59.76
2023-07-03T11:51:32.808Z,60.07
2023-07-03T11:54:13.747Z,59.56
2023-07-03T11:56:42.579Z,61.92
2023-07-03T11:59:17.905Z,62.17
2023-07-03T12:01:46.216Z,60.67
2023-07-03T12:04:49.082Z,60.05
2023-07-03T12:07:18.190Z,60.73
2023-07-03T12:09:51.447Z,60.24
2023-07-03T12:12:22.405Z,59.97
2023-07-03T12:14:55.365Z,57.95
2023-07-03T12:17:27.897Z,57.22
2023-07-03T12:20:14.767Z,59.44
2023-07-03T12:22:46.167Z,58.93
2023-07-03T12:25:19.659Z,57.32
2023-07-03T12:27:49.404Z,55.95
2023-07-03T12:30:27.330Z,56.54
2023-07-03T12:32:57.717Z,54.79
2023-07-03T12:35:32.002Z,52.70
2023-07-03T12:38:05.977Z,53.01
2023-07-03T12:40:34.363Z,53.45
2023-07-03T12:43:02.626Z,54.58
2023-07-03T12:45:32.329Z,55.66
2023-07-03T12:48:11.701Z,56.92
2023-07-03T12:50:55.040Z,56.77
2023-07-03T12:53:25.642Z,56.03
2023-07-03T12:55:57.784Z,56.45
2023-07-03T12:58:26.935Z,55.75
2023-07-03T13:01:07.662Z,55.49
2023-07-03T13:03:41.284Z,55.36
2023-07-03T13:06:24.820Z,54.75
2023-07-03T13:08:54.057Z,53.96
2023-07-03T13:11:54.584Z,55.01
2023-07-03T13:14:26.322Z,55.89
2023-07-03T13:17:00.564Z,56.74
2023-07-03T13:19:35.986Z,56.75
2023-07-03T13:22:15.384Z,57.52
2023-07-03T13:24:50.054Z,58.35
2023-07-03T13:27:27.071Z,58.59
2023-07-03T13:30:15.949Z,58.99
2023-07-03T13:32:59.259Z,57.20
2023-07-03T13:35:33.970Z,56.42
2023-07-03T13:38:12.290Z,56.77
2023-07-03T13:40:40.639Z,56.25
2023-07-03T13:43:09.604Z,56.23
2023-07-03T13:45:37.918Z,57.34
2023-07-03T13:48:07.278Z,57.18
2023-07-03T13:50:35.677Z,57.02
2023-07-03T13:53:04.073Z,56.76
2023-07-03T13:55:32.289Z,57.16
2023-07-03T13:58:00.560Z,57.83
2023-07-03T14:00:29.011Z,57.97
2023-07-03T14:02:57.577Z,57.92
2023-07-03T14:05:26.254Z,56.69
2023-07-03T14:07:54.523Z,55.97
2023-07-03T14:10:22.815Z,55.96
2023-07-03T14:12:51.113Z,56.18
2023-07-03T14:15:26.991Z,56.80
2023-07-03T14:17:56.062Z,55.32
2023-07-03T14:20:24.429Z,53.84
2023-07-03T14:22:52.763Z,53.17
2023-07-03T14:25:21.006Z,54.40
2023-07-03T14:27:50.288Z,55.47
2023-07-03T14:30:18.955Z,56.43
2023-07-03T14:32:55.436Z,56.44
2023-07-03T14:35:25.158Z,57.59
2023-07-03T14:37:53.581Z,56.94
2023-07-03T14:40:21.934Z,57.41
2023-07-03T14:42:50.853Z,57.24
2023-07-03T14:45:19.290Z,57.21
2023-07-03T14:47:47.713Z,57.03
2023-07-03T14:50:16.015Z,56.78
2023-07-03T14:52:46.299Z,57.14
2023-07-03T14:55:16.461Z,56.72
2023-07-03T14:57:46.316Z,55.95
2023-07-03T15:00:15.157Z,57.07
2023-07-03T15:02:49.891Z,58.29
2023-07-03T15:05:20.941Z,57.98
2023-07-03T15:07:51.339Z,58.42
2023-07-03T15:10:21.406Z,58.04
2023-07-03T15:12:49.680Z,58.96
2023-07-03T15:15:18.034Z,58.71
2023-07-03T15:17:51.227Z,59.92
2023-07-03T15:20:19.750Z,59.16
2023-07-03T15:22:52.197Z,59.24
2023-07-03T15:25:21.191Z,60.80
2023-07-03T15:27:49.533Z,59.79
2023-07-03T15:30:18.045Z,60.11
2023-07-03T15:32:52.619Z,61.55
2023-07-03T15:35:22.490Z,59.56
2023-07-03T15:37:50.699Z,59.34
2023-07-03T15:40:18.879Z,60.95
2023-07-03T15:42:47.383Z,61.97
2023-07-03T15:45:15.720Z,61.28
2023-07-03T15:47:46.135Z,61.58
2023-07-03T15:50:15.089Z,62.24
2023-07-03T15:52:43.426Z,63.93
2023-07-03T15:55:11.792Z,64.90
2023-07-03T15:57:40.089Z,64.96
2023-07-03T16:00:08.946Z,65.15
2023-07-03T16:02:37.555Z,65.33
2023-07-03T16:05:06.197Z,66.07
2023-07-03T16:07:35.805Z,66.10
2023-07-03T16:10:04.356Z,66.51
2023-07-03T16:12:32.594Z,66.30
2023-07-03T16:15:00.874Z,65.95
2023-07-03T16:17:35.075Z,65.55
2023-07-03T16:20:10.091Z,64.24
2023-07-03T16:22:39.328Z,64.02
2023-07-03T16:25:08.119Z,63.92
2023-07-03T16:27:37.414Z,63.24
2023-07-03T16:30:06.438Z,63.25
2023-07-03T16:32:34.837Z,62.52
2023-07-03T16:35:03.097Z,62.33
2023-07-03T16:37:31.365Z,62.47
2023-07-03T16:39:59.685Z,62.26
2023-07-03T16:42:28.092Z,62.52
2023-07-03T16:44:56.351Z,62.56
2023-07-03T16:47:25.234Z,63.54
2023-07-03T16:49:53.591Z,63.96
2023-07-03T16:52:21.896Z,64.57
2023-07-03T16:54:50.211Z,65.43
2023-07-03T16:57:18.502Z,65.10
2023-07-03T16:59:46.744Z,64.78
2023-07-03T17:02:15.000Z,64.85
2023-07-03T17:04:43.373Z,65.66
2023-07-03T17:07:11.693Z,66.87
2023-07-03T17:09:39.944Z,66.70
2023-07-03T17:12:08.446Z,66.71
2023-07-03T17:14:36.778Z,66.99
2023-07-03T17:17:05.312Z,66.73
2023-07-03T17:19:33.948Z,67.89
2023-07-03T17:22:02.260Z,67.27
2023-07-03T17:24:30.521Z,67.35
2023-07-03T17:26:58.737Z,67.25
2023-07-03T17:29:27.139Z,68.06
2023-07-03T17:31:55.552Z,68.53
2023-07-03T17:34:23.864Z,69.20
2023-07-03T17:36:52.354Z,69.70
2023-07-03T17:39:20.756Z,69.65
2023-07-03T17:41:49.952Z,70.33
2023-07-03T17:44:18.243Z,70.81
2023-07-03T17:46:46.577Z,69.89
2023-07-03T17:49:14.768Z,70.53
2023-07-03T17:51:43.007Z,71.86
2023-07-03T17:54:11.283Z,71.71
2023-07-03T17:56:39.648Z,72.88
2023-07-03T17:59:07.810Z,73.19
2023-07-03T18:01:36.169Z,73.42
2023-07-03T18:04:06.412Z,73.99
2023-07-03T18:06:38.102Z,74.74
2023-07-03T18:09:06.317Z,73.97
2023-07-03T18:11:34.972Z,75.17
2023-07-03T18:14:03.455Z,75.66
2023-07-03T18:16:31.790Z,75.89
2023-07-03T18:19:00.124Z,76.83
2023-07-03T18:21:28.557Z,75.92
2023-07-03T18:23:58.471Z,76.21
2023-07-03T18:26:26.749Z,77.09
2023-07-03T18:28:55.120Z,77.36
2023-07-03T18:31:26.179Z,77.34
2023-07-03T18:33:58.453Z,77.66
2023-07-03T18:36:26.778Z,77.51
2023-07-03T18:38:56.689Z,75.23
2023-07-03T18:41:26.231Z,75.62
2023-07-03T18:43:54.632Z,77.48
2023-07-03T18:46:22.894Z,78.80
2023-07-03T18:48:51.224Z,77.81
2023-07-03T18:51:22.923Z,77.35
2023-07-03T18:53:52.076Z,77.10
2023-07-03T18:56:21.703Z,79.12
2023-07-03T18:58:50.978Z,78.69
2023-07-03T19:01:19.416Z,80.08
2023-07-03T19:03:47.960Z,80.65
2023-07-03T19:06:21.936Z,81.27
2023-07-03T19:08:50.201Z,81.49
2023-07-03T19:11:19.513Z,81.74
2023-07-03T19:13:47.878Z,81.26
2023-07-03T19:16:16.304Z,81.00
2023-07-03T19:18:46.061Z,81.51
2023-07-03T19:21:14.583Z,81.18
2023-07-03T19:23:43.415Z,81.05
2023-07-03T19:26:11.964Z,80.57
2023-07-03T19:28:40.737Z,81.20
2023-07-03T19:31:09.620Z,82.01
2023-07-03T19:33:37.969Z,81.81
2023-07-03T19:36:15.297Z,81.11
2023-07-03T19:38:43.979Z,80.25
2023-07-03T19:41:15.271Z,80.47
2023-07-03T19:43:43.939Z,81.56
2023-07-03T19:46:12.831Z,82.16
2023-07-03T19:48:41.462Z,82.13
2023-07-03T19:51:09.761Z,82.46
2023-07-03T19:53:38.515Z,83.01
2023-07-03T19:56:13.818Z,82.05
2023-07-03T19:58:42.602Z,81.22
2023-07-03T20:01:12.927Z,81.45
2023-07-03T20:03:42.387Z,83.90
2023-07-03T20:06:18.770Z,84.06
2023-07-03T20:08:48.553Z,83.49
2023-07-03T20:11:17.461Z,84.66
2023-07-03T20:13:47.737Z,83.84
2023-07-03T20:16:16.721Z,84.74
2023-07-03T20:18:50.423Z,85.22
2023-07-03T20:21:19.624Z,85.90
2023-07-03T20:23:49.562Z,84.69
2023-07-03T20:26:17.896Z,85.62
2023-07-03T20:28:46.504Z,85.60
2023-07-03T20:31:15.689Z,84.95
2023-07-03T20:33:44.199Z,84.83
2023-07-03T20:36:13.524Z,84.16
2023-07-03T20:38:41.789Z,83.86
2023-07-03T20:41:12.471Z,84.93
2023-07-03T20:43:42.773Z,85.44
2023-07-03T20:46:14.129Z,87.03
2023-07-03T20:48:43.105Z,86.27
2023-07-03T20:51:22.176Z,85.81
2023-07-03T20:53:52.365Z,85.52
2023-07-03T20:56:27.578Z,85.39
2023-07-03T20:58:58.553Z,85.64
2023-07-03T21:01:32.510Z,85.16
2023-07-03T21:04:05.020Z,85.43
2023-07-03T21:06:37.468Z,85.30
2023-07-03T21:09:07.309Z,87.10
2023-07-03T21:11:37.105Z,87.60
2023-07-03T21:14:08.175Z,87.13
2023-07-03T21:16:37.479Z,87.04
2023-07-03T21:19:13.341Z,87.06
2023-07-03T21:21:42.552Z,86.46
2023-07-03T21:24:12.708Z,88.28
2023-07-03T21:26:41.279Z,86.73
2023-07-03T21:29:09.688Z,86.73
2023-07-03T21:31:38.162Z,87.59
2023-07-03T21:34:06.877Z,86.58
2023-07-03T21:36:35.251Z,87.85
2023-07-03T21:39:07.620Z,88.36
2023-07-03T21:41:37.165Z,88.72
2023-07-03T21:44:14.153Z,87.93
2023-07-03T21:46:42.895Z,86.49
2023-07-03T21:49:14.352Z,86.71
2023-07-03T21:51:43.064Z,86.55
2023-07-03T21:54:11.498Z,86.69
2023-07-03T21:56:41.646Z,88.10
2023-07-03T21:59:10.763Z,88.56
2023-07-03T22:01:40.707Z,87.79
2023-07-03T22:04:09.961Z,88.63
2023-07-03T22:06:38.379Z,87.74
2023-07-03T22:09:07.318Z,86.64
2023-07-03T22:11:35.673Z,87.51
2023-07-03T22:14:04.401Z,87.75
2023-07-03T22:16:32.925Z,87.61
2023-07-03T22:19:01.343Z,88.12
2023-07-03T22:21:30.770Z,88.20
2023-07-03T22:23:59.801Z,88.39
2023-07-03T22:26:28.030Z,88.78
2023-07-03T22:28:57.618Z,87.38
2023-07-03T22:31:27.671Z,86.79
2023-07-03T22:33:56.158Z,87.20
2023-07-03T22:36:24.664Z,88.75
2023-07-03T22:38:53.015Z,89.37
2023-07-03T22:41:23.553Z,89.33
2023-07-03T22:43:51.942Z,89.75
2023-07-03T22:46:20.217Z,89.57
2023-07-03T22:48:48.700Z,88.96
2023-07-03T22:51:17.054Z,87.75
2023-07-03T22:53:49.281Z,87.55
2023-07-03T22:56:17.578Z,87.93
2023-07-03T22:58:45.824Z,88.52
2023-07-03T23:01:14.195Z,89.26
2023-07-03T23:03:42.416Z,90.56
2023-07-03T23:06:10.824Z,89.79
2023-07-03T23:08:39.238Z,90.69
2023-07-03T23:11:07.602Z,91.08
2023-07-03T23:13:36.145Z,90.86
2023-07-03T23:16:07.420Z,90.71
2023-07-03T23:18:38.485Z,89.98
2023-07-03T23:21:11.443Z,91.40
2023-07-03T23:23:40.197Z,90.84
2023-07-03T23:26:14.226Z,90.56
2023-07-03T23:28:44.755Z,91.30
2023-07-03T23:31:17.941Z,91.10
2023-07-03T23:33:51.526Z,91.42
2023-07-03T23:36:23.776Z,92.23
2023-07-03T23:38:52.767Z,92.38
2023-07-03T23:41:21.956Z,91.97
2023-07-03T23:43:50.529Z,90.63
2023-07-03T23:46:18.997Z,90.28
2023-07-03T23:48:47.524Z,91.51
2023-07-03T23:51:18.777Z,91.51
2023-07-03T23:53:48.891Z,91.21
2023-07-03T23:56:19.824Z,91.24
2023-07-03T23:58:49.651Z,91.53
